sensor_id;sensor_type;location;lat;lon;timestamp;pressure;altitude;pressure_sealevel;temperature;humidity
32330;BME280;18807;52.434;13.238;2023-05-23T14:44:14;75383.94;;;-142.05;100.00
32330;BME280;18807;52.434;13.238;2023-05-23T14:51:48;75406.38;;;-142.05;100.00
32330;BME280;18807;52.434;13.238;2023-05-23T14:59:24;75432.91;;;-142.05;100.00
32330;BME280;18807;52.434;13.238;2023-05-23T15:06:58;75551.28;;;-142.05;100.00
32330;BME280;18807;52.434;13.238;2023-05-23T15:14:37;75634.94;;;-142.05;100.00
32330;BME280;18807;52.434;13.238;2023-05-23T15:22:11;75665.53;;;-142.05;100.00
32330;BME280;18807;52.434;13.238;2023-05-23T15:30:08;75706.34;;;-142.05;100.00
32330;BME280;18807;52.434;13.238;2023-05-23T15:37:41;75726.78;;;-142.05;100.00
32330;BME280;18807;52.434;13.238;2023-05-23T15:45:17;75779.81;;;-142.05;100.00
32330;BME280;18807;52.434;13.238;2023-05-23T15:52:51;75783.91;;;-142.05;100.00
32330;BME280;18807;52.434;13.238;2023-05-23T16:00:26;75824.72;;;-142.05;100.00
32330;BME280;18807;52.434;13.238;2023-05-23T16:08:00;75836.97;;;-142.05;100.00
32330;BME280;18807;52.434;13.238;2023-05-23T16:15:36;75855.34;;;-142.05;100.00
32330;BME280;18807;52.434;13.238;2023-05-23T16:23:10;75869.63;;;-142.05;100.00
32330;BME280;18807;52.434;13.238;2023-05-23T16:30:45;75869.63;;;-142.05;100.00
32330;BME280;18807;52.434;13.238;2023-05-23T16:38:19;75871.66;;;-142.05;100.00
32330;BME280;18807;52.434;13.238;2023-05-23T16:45:54;75902.28;;;-142.05;100.00
32330;BME280;18807;52.434;13.238;2023-05-23T16:53:28;75914.53;;;-142.05;100.00
32330;BME280;18807;52.434;13.238;2023-05-23T17:01:03;75932.88;;;-142.05;100.00
32330;BME280;18807;52.434;13.238;2023-05-23T17:08:37;75934.94;;;-142.05;100.00
32330;BME280;18807;52.434;13.238;2023-05-23T17:16:13;75985.94;;;-142.05;100.00
32330;BME280;18807;52.434;13.238;2023-05-23T17:23:51;76018.59;;;-142.05;100.00
32330;BME280;18807;52.434;13.238;2023-05-23T17:40:20;76061.47;;;-142.05;100.00
32330;BME280;18807;52.434;13.238;2023-05-23T17:47:54;76081.88;;;-142.05;100.00
32330;BME280;18807;52.434;13.238;2023-05-23T17:55:31;76071.66;;;-142.05;100.00
32330;BME280;18807;52.434;13.238;2023-05-23T18:03:05;76081.88;;;-142.05;100.00
32330;BME280;18807;52.434;13.238;2023-05-23T18:10:40;76077.78;;;-142.05;100.00
32330;BME280;18807;52.434;13.238;2023-05-23T18:18:18;76079.81;;;-142.05;100.00
32330;BME280;18807;52.434;13.238;2023-05-23T18:25:54;76098.19;;;-142.05;100.00
32330;BME280;18807;52.434;13.238;2023-05-23T18:33:28;76098.19;;;-142.05;100.00
32330;BME280;18807;52.434;13.238;2023-05-23T18:49:56;76114.53;;;-142.05;100.00
32330;BME280;18807;52.434;13.238;2023-05-23T18:57:30;76118.59;;;-142.05;100.00
32330;BME280;18807;52.434;13.238;2023-05-23T19:05:07;76126.78;;;-142.05;100.00
32330;BME280;18807;52.434;13.238;2023-05-23T19:12:41;76139.03;;;-142.05;100.00
32330;BME280;18807;52.434;13.238;2023-05-23T19:20:16;76143.09;;;-142.05;100.00
32330;BME280;18807;52.434;13.238;2023-05-23T19:27:51;76145.13;;;-142.05;100.00
32330;BME280;18807;52.434;13.238;2023-05-23T19:35:26;76159.44;;;-142.05;100.00
32330;BME280;18807;52.434;13.238;2023-05-23T19:43:00;76159.44;;;-142.05;100.00
32330;BME280;18807;52.434;13.238;2023-05-23T19:50:38;76175.75;;;-142.05;100.00
32330;BME280;18807;52.434;13.238;2023-05-23T19:58:15;76198.22;;;-142.05;100.00
32330;BME280;18807;52.434;13.238;2023-05-23T20:05:51;76230.88;;;-142.05;100.00
32330;BME280;18807;52.434;13.238;2023-05-23T20:13:25;76257.41;;;-142.05;100.00
32330;BME280;18807;52.434;13.238;2023-05-23T20:21:01;76273.72;;;-142.05;100.00
32330;BME280;18807;52.434;13.238;2023-05-23T20:28:36;76292.09;;;-142.05;100.00
32330;BME280;18807;52.434;13.238;2023-05-23T20:36:12;76312.50;;;-142.05;94.96
32330;BME280;18807;52.434;13.238;2023-05-23T20:43:45;76339.03;;;-142.05;91.65
32330;BME280;18807;52.434;13.238;2023-05-23T20:51:21;76341.09;;;-142.05;88.47
32330;BME280;18807;52.434;13.238;2023-05-23T20:58:55;76339.03;;;-142.05;89.10
32330;BME280;18807;52.434;13.238;2023-05-23T21:06:32;76353.31;;;-142.05;85.33
32330;BME280;18807;52.434;13.238;2023-05-23T21:14:06;76396.19;;;-142.05;82.74
32330;BME280;18807;52.434;13.238;2023-05-23T21:21:41;76420.69;;;-142.05;82.54
32330;BME280;18807;52.434;13.238;2023-05-23T21:29:15;76430.88;;;-142.05;82.27
32330;BME280;18807;52.434;13.238;2023-05-23T21:36:50;76422.72;;;-142.05;81.98
32330;BME280;18807;52.434;13.238;2023-05-23T21:44:24;76443.13;;;-142.05;81.70
32330;BME280;18807;52.434;13.238;2023-05-23T21:52:00;76449.25;;;-142.05;81.05
32330;BME280;18807;52.434;13.238;2023-05-23T21:59:33;76479.88;;;-142.05;75.68
32330;BME280;18807;52.434;13.238;2023-05-23T22:07:09;76492.13;;;-142.05;75.28
32330;BME280;18807;52.434;13.238;2023-05-23T22:14:42;76504.38;;;-142.05;74.15
32330;BME280;18807;52.434;13.238;2023-05-23T22:22:18;76512.53;;;-142.05;72.74
32330;BME280;18807;52.434;13.238;2023-05-23T22:29:52;76516.63;;;-142.05;72.54
32330;BME280;18807;52.434;13.238;2023-05-23T22:37:27;76537.03;;;-142.05;71.37
32330;BME280;18807;52.434;13.238;2023-05-23T22:45:01;76532.94;;;-142.05;72.38
32330;BME280;18807;52.434;13.238;2023-05-23T22:52:36;76549.28;;;-142.05;71.90
32330;BME280;18807;52.434;13.238;2023-05-23T23:00:11;76547.25;;;-142.05;71.88
32330;BME280;18807;52.434;13.238;2023-05-23T23:07:47;76559.47;;;-142.05;72.96
32330;BME280;18807;52.434;13.238;2023-05-23T23:15:22;76555.41;;;-142.05;73.56
32330;BME280;18807;52.434;13.238;2023-05-23T23:31:50;76573.78;;;-142.05;76.17
32330;BME280;18807;52.434;13.238;2023-05-23T23:39:27;76567.66;;;-142.05;77.06
32330;BME280;18807;52.434;13.238;2023-05-23T23:47:02;76600.31;;;-142.05;76.60
32330;BME280;18807;52.434;13.238;2023-05-23T23:54:36;76590.09;;;-142.05;76.94
